Lafayette, NJ

4:40 PM EST on December 09, 2016 (GMT -0500)
Frankford TWP | | Change Station

Elev 506 ft 41.15 °N, 74.68 °W | Updated 53 seconds ago

Mostly Cloudy
Mostly Cloudy
31.0 °F
Feels Like 31 °F
N
0.0
Wind Variable Wind from WSW
Gusts 14.0 mph

Today
High -- | Low -- °F
--% Chance of Precip.
Yesterday
High -- | Low -- °F
Precip. -- in
Pressure 30.17 in
Visibility 10.0 miles
Clouds Clear
Windchill 31 °F
Dew Point 13 °F
Humidity 47%
Rainfall 0.00 in
Snow Depth Not available.
7:12 AM 4:30 PM
Waxing Gibbous, 77% visible
METAR KFWN 092053Z AUTO 29014G23KT 10SM CLR 01/M10 A3015 RMK AO2 PK WND 27026/2039 SLP215 T00061100 53019
Pressure 30.17 in
Visibility 10.0 miles
Clouds Clear
Windchill 31 °F
Dew Point 13 °F
Humidity 47%
Rainfall 0.00 in
Snow Depth Not available.
7:12 AM 4:30 PM
Waxing Gibbous, 77% visible
METAR KFWN 092053Z AUTO 29014G23KT 10SM CLR 01/M10 A3015 RMK AO2 PK WND 27026/2039 SLP215 T00061100 53019

10-Day Weather Forecast

Almanac

Astronomy

Dec. 09, 2016 Rise Set
Actual Time
Civil Twilight
Nautical Twilight
Astronomical Twilight
Moon
Length of Visible Light
Length of Day
Tomorrow will be .
, % of the Moon is Illuminated

Today's Extremes

State Highs State Lows

Community

WunderPhotos

Upload Photos

1,956,517 photos uploaded!

WunderBlog® & News

Nearby

Air Quality

  Air Quality AQ Index Pollutant
Not available.

Snow Depth

Station Depth Elevation

Earthquake Activity

City Distance Mag. Time & Date
Minimum magnitude displayed is 2.5.

Coastal Water Temperatures

Place Temperature

Stations

Nearby Weather Stations

Station Location Temp. Windchill Dew Point Humidity Wind Precip. Elev Updated Type
                   

Watches & Warnings

There are currently no watches in effect.